Terminal Aerodrome Forecast
Issued by NWS Wichita, KS

Home | Current Version | Previous Version | Graphics & Text | Print | Product List | Glossary On
Versions: 1 2 3 4 5 6 7 8 9 10 11 12 13 14 15
000
FTUS43 KICT 141200 AAA
TAFICT
TAF AMD
KICT 141200Z 1413/1512 16007KT P6SM SCT035 OVC070
     FM141500 VRB03KT P6SM SCT035
     FM142100 28007KT P6SM OVC250=

USA.gov is the U.S. government's official web portal to all federal, state and local government web resources and services.